sensor_id;sensor_type;location;lat;lon;timestamp;P1;durP1;ratioP1;P2;durP2;ratioP2
22929;SDS011;11630;42.660;23.292;2023-07-29T00:00:26;7.13;;;3.53;;
22929;SDS011;11630;42.660;23.292;2023-07-29T00:02:57;4.87;;;3.10;;
22929;SDS011;11630;42.660;23.292;2023-07-29T00:05:28;2.87;;;2.60;;
22929;SDS011;11630;42.660;23.292;2023-07-29T00:07:59;9.93;;;3.07;;
22929;SDS011;11630;42.660;23.292;2023-07-29T00:10:35;5.83;;;2.80;;
22929;SDS011;11630;42.660;23.292;2023-07-29T00:13:04;4.93;;;3.10;;
22929;SDS011;11630;42.660;23.292;2023-07-29T00:15:36;4.70;;;2.73;;
22929;SDS011;11630;42.660;23.292;2023-07-29T00:18:07;6.10;;;3.10;;
22929;SDS011;11630;42.660;23.292;2023-07-29T00:20:38;4.83;;;3.53;;
22929;SDS011;11630;42.660;23.292;2023-07-29T00:23:09;4.10;;;3.03;;
22929;SDS011;11630;42.660;23.292;2023-07-29T00:25:39;4.13;;;3.10;;
22929;SDS011;11630;42.660;23.292;2023-07-29T00:28:11;3.27;;;2.93;;
22929;SDS011;11630;42.660;23.292;2023-07-29T00:30:41;3.73;;;3.30;;
22929;SDS011;11630;42.660;23.292;2023-07-29T00:33:12;3.97;;;3.00;;
22929;SDS011;11630;42.660;23.292;2023-07-29T00:35:43;3.40;;;2.90;;
22929;SDS011;11630;42.660;23.292;2023-07-29T00:38:14;3.90;;;2.67;;
22929;SDS011;11630;42.660;23.292;2023-07-29T00:40:43;5.53;;;2.73;;
22929;SDS011;11630;42.660;23.292;2023-07-29T00:43:14;4.23;;;2.63;;
22929;SDS011;11630;42.660;23.292;2023-07-29T00:45:45;3.37;;;2.73;;
22929;SDS011;11630;42.660;23.292;2023-07-29T00:48:16;3.83;;;2.90;;
22929;SDS011;11630;42.660;23.292;2023-07-29T00:50:49;5.57;;;2.87;;
22929;SDS011;11630;42.660;23.292;2023-07-29T00:53:20;3.50;;;3.20;;
22929;SDS011;11630;42.660;23.292;2023-07-29T00:55:51;4.37;;;3.20;;
22929;SDS011;11630;42.660;23.292;2023-07-29T00:58:22;3.30;;;2.93;;
22929;SDS011;11630;42.660;23.292;2023-07-29T01:00:52;4.57;;;3.13;;
22929;SDS011;11630;42.660;23.292;2023-07-29T01:03:23;4.30;;;3.03;;
22929;SDS011;11630;42.660;23.292;2023-07-29T01:06:09;10.60;;;3.63;;
22929;SDS011;11630;42.660;23.292;2023-07-29T01:08:58;8.67;;;4.67;;
22929;SDS011;11630;42.660;23.292;2023-07-29T01:17:22;6.50;;;3.10;;
22929;SDS011;11630;42.660;23.292;2023-07-29T01:19:57;3.60;;;3.07;;
22929;SDS011;11630;42.660;23.292;2023-07-29T01:22:39;6.63;;;3.10;;
22929;SDS011;11630;42.660;23.292;2023-07-29T01:25:09;4.63;;;3.27;;
22929;SDS011;11630;42.660;23.292;2023-07-29T01:27:45;7.30;;;3.60;;
22929;SDS011;11630;42.660;23.292;2023-07-29T01:30:15;3.20;;;2.90;;
22929;SDS011;11630;42.660;23.292;2023-07-29T01:32:51;4.73;;;3.00;;
22929;SDS011;11630;42.660;23.292;2023-07-29T01:35:23;6.43;;;3.53;;
22929;SDS011;11630;42.660;23.292;2023-07-29T01:38:09;6.00;;;3.53;;
22929;SDS011;11630;42.660;23.292;2023-07-29T01:40:35;8.43;;;3.30;;
22929;SDS011;11630;42.660;23.292;2023-07-29T01:43:05;4.97;;;3.60;;
22929;SDS011;11630;42.660;23.292;2023-07-29T01:45:38;3.73;;;2.90;;
22929;SDS011;11630;42.660;23.292;2023-07-29T01:48:08;6.33;;;3.40;;
22929;SDS011;11630;42.660;23.292;2023-07-29T01:50:38;3.37;;;3.07;;
22929;SDS011;11630;42.660;23.292;2023-07-29T01:53:09;3.27;;;2.97;;
22929;SDS011;11630;42.660;23.292;2023-07-29T01:55:40;6.67;;;3.87;;
22929;SDS011;11630;42.660;23.292;2023-07-29T01:58:10;6.27;;;3.60;;
22929;SDS011;11630;42.660;23.292;2023-07-29T02:00:41;3.77;;;3.33;;
22929;SDS011;11630;42.660;23.292;2023-07-29T02:03:12;4.33;;;3.57;;
22929;SDS011;11630;42.660;23.292;2023-07-29T02:05:43;3.70;;;3.40;;
22929;SDS011;11630;42.660;23.292;2023-07-29T02:08:13;6.67;;;3.60;;
22929;SDS011;11630;42.660;23.292;2023-07-29T02:10:44;4.33;;;3.43;;
22929;SDS011;11630;42.660;23.292;2023-07-29T02:13:14;7.30;;;3.80;;
22929;SDS011;11630;42.660;23.292;2023-07-29T02:15:44;5.03;;;3.30;;
22929;SDS011;11630;42.660;23.292;2023-07-29T02:18:17;4.03;;;3.60;;
22929;SDS011;11630;42.660;23.292;2023-07-29T02:20:48;3.87;;;3.33;;
22929;SDS011;11630;42.660;23.292;2023-07-29T02:23:19;5.27;;;3.87;;
22929;SDS011;11630;42.660;23.292;2023-07-29T02:25:50;6.97;;;4.30;;
22929;SDS011;11630;42.660;23.292;2023-07-29T02:28:21;6.77;;;3.50;;
22929;SDS011;11630;42.660;23.292;2023-07-29T02:31:08;6.47;;;3.70;;
22929;SDS011;11630;42.660;23.292;2023-07-29T02:33:38;7.00;;;3.53;;
22929;SDS011;11630;42.660;23.292;2023-07-29T02:36:10;6.40;;;3.80;;
22929;SDS011;11630;42.660;23.292;2023-07-29T02:38:41;4.63;;;3.50;;
22929;SDS011;11630;42.660;23.292;2023-07-29T02:41:12;4.40;;;3.57;;
22929;SDS011;11630;42.660;23.292;2023-07-29T02:43:43;6.93;;;4.13;;
22929;SDS011;11630;42.660;23.292;2023-07-29T02:46:14;6.53;;;3.33;;
22929;SDS011;11630;42.660;23.292;2023-07-29T02:48:45;6.33;;;3.83;;
22929;SDS011;11630;42.660;23.292;2023-07-29T02:51:14;3.60;;;3.27;;
22929;SDS011;11630;42.660;23.292;2023-07-29T02:53:45;3.97;;;3.57;;
22929;SDS011;11630;42.660;23.292;2023-07-29T02:56:16;4.57;;;3.43;;
22929;SDS011;11630;42.660;23.292;2023-07-29T02:58:47;5.73;;;3.93;;
22929;SDS011;11630;42.660;23.292;2023-07-29T03:01:17;4.60;;;3.60;;
22929;SDS011;11630;42.660;23.292;2023-07-29T03:03:47;4.90;;;3.83;;
22929;SDS011;11630;42.660;23.292;2023-07-29T03:06:18;10.93;;;3.87;;
22929;SDS011;11630;42.660;23.292;2023-07-29T03:08:48;6.90;;;4.00;;
22929;SDS011;11630;42.660;23.292;2023-07-29T03:11:19;5.57;;;3.50;;
22929;SDS011;11630;42.660;23.292;2023-07-29T03:13:50;7.70;;;4.00;;
22929;SDS011;11630;42.660;23.292;2023-07-29T03:16:20;4.57;;;3.67;;
22929;SDS011;11630;42.660;23.292;2023-07-29T03:18:55;6.07;;;4.07;;
22929;SDS011;11630;42.660;23.292;2023-07-29T03:21:25;4.93;;;4.43;;
22929;SDS011;11630;42.660;23.292;2023-07-29T03:23:56;6.60;;;3.90;;
22929;SDS011;11630;42.660;23.292;2023-07-29T03:26:27;9.67;;;4.30;;
22929;SDS011;11630;42.660;23.292;2023-07-29T03:28:58;5.13;;;3.73;;
22929;SDS011;11630;42.660;23.292;2023-07-29T03:31:29;5.00;;;4.33;;
22929;SDS011;11630;42.660;23.292;2023-07-29T03:33:59;9.53;;;4.67;;
22929;SDS011;11630;42.660;23.292;2023-07-29T03:36:31;4.80;;;3.90;;
22929;SDS011;11630;42.660;23.292;2023-07-29T03:39:02;5.87;;;4.50;;
22929;SDS011;11630;42.660;23.292;2023-07-29T03:41:33;4.27;;;3.70;;
22929;SDS011;11630;42.660;23.292;2023-07-29T03:44:03;8.13;;;3.97;;
22929;SDS011;11630;42.660;23.292;2023-07-29T03:46:35;7.57;;;4.37;;
22929;SDS011;11630;42.660;23.292;2023-07-29T03:49:08;8.93;;;4.07;;
22929;SDS011;11630;42.660;23.292;2023-07-29T03:51:39;5.10;;;4.10;;
22929;SDS011;11630;42.660;23.292;2023-07-29T03:54:10;6.07;;;3.93;;
22929;SDS011;11630;42.660;23.292;2023-07-29T03:56:41;7.93;;;4.50;;
22929;SDS011;11630;42.660;23.292;2023-07-29T03:59:12;9.77;;;4.67;;
22929;SDS011;11630;42.660;23.292;2023-07-29T04:01:41;7.03;;;4.30;;
22929;SDS011;11630;42.660;23.292;2023-07-29T04:04:13;4.80;;;4.30;;
22929;SDS011;11630;42.660;23.292;2023-07-29T04:06:44;9.97;;;5.00;;
22929;SDS011;11630;42.660;23.292;2023-07-29T04:09:15;9.93;;;4.93;;
22929;SDS011;11630;42.660;23.292;2023-07-29T04:11:46;7.47;;;4.43;;
22929;SDS011;11630;42.660;23.292;2023-07-29T04:14:16;11.60;;;5.27;;
22929;SDS011;11630;42.660;23.292;2023-07-29T04:16:47;5.07;;;4.10;;
22929;SDS011;11630;42.660;23.292;2023-07-29T04:19:17;10.50;;;6.40;;
22929;SDS011;11630;42.660;23.292;2023-07-29T04:21:48;11.20;;;5.57;;
22929;SDS011;11630;42.660;23.292;2023-07-29T04:24:19;14.83;;;9.60;;
22929;SDS011;11630;42.660;23.292;2023-07-29T04:26:50;7.03;;;6.10;;
22929;SDS011;11630;42.660;23.292;2023-07-29T04:29:20;8.50;;;6.30;;
22929;SDS011;11630;42.660;23.292;2023-07-29T04:31:50;7.80;;;5.40;;
22929;SDS011;11630;42.660;23.292;2023-07-29T04:34:20;7.40;;;5.10;;
22929;SDS011;11630;42.660;23.292;2023-07-29T04:36:49;7.40;;;4.80;;
22929;SDS011;11630;42.660;23.292;2023-07-29T04:39:20;7.07;;;4.03;;
22929;SDS011;11630;42.660;23.292;2023-07-29T04:41:51;8.23;;;4.60;;
22929;SDS011;11630;42.660;23.292;2023-07-29T04:44:22;5.40;;;3.83;;
22929;SDS011;11630;42.660;23.292;2023-07-29T04:46:53;4.27;;;3.97;;
22929;SDS011;11630;42.660;23.292;2023-07-29T04:49:23;5.70;;;4.67;;
22929;SDS011;11630;42.660;23.292;2023-07-29T04:51:55;8.50;;;4.43;;
22929;SDS011;11630;42.660;23.292;2023-07-29T04:54:26;8.03;;;5.07;;
22929;SDS011;11630;42.660;23.292;2023-07-29T04:56:57;5.93;;;4.57;;
22929;SDS011;11630;42.660;23.292;2023-07-29T04:59:27;10.00;;;5.13;;
22929;SDS011;11630;42.660;23.292;2023-07-29T05:01:58;9.80;;;5.53;;
22929;SDS011;11630;42.660;23.292;2023-07-29T05:04:29;6.40;;;5.53;;
22929;SDS011;11630;42.660;23.292;2023-07-29T05:07:07;7.60;;;5.53;;
22929;SDS011;11630;42.660;23.292;2023-07-29T05:09:38;6.80;;;5.20;;
22929;SDS011;11630;42.660;23.292;2023-07-29T05:12:09;6.17;;;5.40;;
22929;SDS011;11630;42.660;23.292;2023-07-29T05:14:40;5.60;;;5.07;;
22929;SDS011;11630;42.660;23.292;2023-07-29T05:17:10;7.33;;;5.57;;
22929;SDS011;11630;42.660;23.292;2023-07-29T05:19:42;5.87;;;5.10;;
22929;SDS011;11630;42.660;23.292;2023-07-29T05:22:14;7.50;;;5.30;;
22929;SDS011;11630;42.660;23.292;2023-07-29T05:24:45;8.73;;;5.70;;
22929;SDS011;11630;42.660;23.292;2023-07-29T05:27:16;6.63;;;5.20;;
22929;SDS011;11630;42.660;23.292;2023-07-29T05:29:46;10.23;;;5.60;;
22929;SDS011;11630;42.660;23.292;2023-07-29T05:32:17;6.73;;;6.03;;
22929;SDS011;11630;42.660;23.292;2023-07-29T05:34:48;7.10;;;5.53;;
22929;SDS011;11630;42.660;23.292;2023-07-29T05:37:19;11.30;;;5.40;;
22929;SDS011;11630;42.660;23.292;2023-07-29T05:39:50;8.07;;;5.23;;
22929;SDS011;11630;42.660;23.292;2023-07-29T05:42:21;8.33;;;6.27;;
22929;SDS011;11630;42.660;23.292;2023-07-29T05:44:52;5.03;;;4.47;;
22929;SDS011;11630;42.660;23.292;2023-07-29T05:47:22;6.83;;;4.83;;
22929;SDS011;11630;42.660;23.292;2023-07-29T05:49:53;7.60;;;4.43;;
22929;SDS011;11630;42.660;23.292;2023-07-29T05:52:25;7.43;;;5.13;;
22929;SDS011;11630;42.660;23.292;2023-07-29T05:54:55;7.60;;;4.60;;
22929;SDS011;11630;42.660;23.292;2023-07-29T05:57:26;5.73;;;4.20;;
22929;SDS011;11630;42.660;23.292;2023-07-29T05:59:56;4.50;;;4.10;;
22929;SDS011;11630;42.660;23.292;2023-07-29T06:02:27;8.30;;;4.97;;
22929;SDS011;11630;42.660;23.292;2023-07-29T06:04:58;7.70;;;4.47;;
22929;SDS011;11630;42.660;23.292;2023-07-29T06:07:29;9.73;;;4.50;;
22929;SDS011;11630;42.660;23.292;2023-07-29T06:10:00;7.57;;;4.67;;
22929;SDS011;11630;42.660;23.292;2023-07-29T06:12:30;4.67;;;4.27;;
22929;SDS011;11630;42.660;23.292;2023-07-29T06:15:01;6.23;;;4.13;;
22929;SDS011;11630;42.660;23.292;2023-07-29T06:17:35;5.67;;;4.27;;
22929;SDS011;11630;42.660;23.292;2023-07-29T06:20:06;7.13;;;5.00;;
22929;SDS011;11630;42.660;23.292;2023-07-29T06:22:37;8.53;;;4.13;;
22929;SDS011;11630;42.660;23.292;2023-07-29T06:25:08;4.80;;;3.97;;
22929;SDS011;11630;42.660;23.292;2023-07-29T06:27:39;7.63;;;4.80;;
22929;SDS011;11630;42.660;23.292;2023-07-29T06:30:10;5.03;;;4.27;;
22929;SDS011;11630;42.660;23.292;2023-07-29T06:32:41;7.43;;;4.17;;
22929;SDS011;11630;42.660;23.292;2023-07-29T06:35:12;7.27;;;4.20;;
22929;SDS011;11630;42.660;23.292;2023-07-29T06:37:43;4.80;;;4.30;;
22929;SDS011;11630;42.660;23.292;2023-07-29T06:40:14;7.60;;;4.00;;
22929;SDS011;11630;42.660;23.292;2023-07-29T06:42:44;8.33;;;4.87;;
22929;SDS011;11630;42.660;23.292;2023-07-29T06:45:17;5.10;;;4.13;;
22929;SDS011;11630;42.660;23.292;2023-07-29T06:47:48;4.50;;;4.10;;
22929;SDS011;11630;42.660;23.292;2023-07-29T06:50:19;6.60;;;3.73;;
22929;SDS011;11630;42.660;23.292;2023-07-29T06:52:50;5.10;;;3.77;;
22929;SDS011;11630;42.660;23.292;2023-07-29T06:55:21;4.10;;;3.70;;
22929;SDS011;11630;42.660;23.292;2023-07-29T06:57:52;5.20;;;3.73;;
22929;SDS011;11630;42.660;23.292;2023-07-29T07:00:27;8.40;;;3.83;;
22929;SDS011;11630;42.660;23.292;2023-07-29T07:02:58;6.23;;;3.53;;
22929;SDS011;11630;42.660;23.292;2023-07-29T07:05:32;10.30;;;4.40;;
22929;SDS011;11630;42.660;23.292;2023-07-29T07:08:03;4.67;;;3.97;;
22929;SDS011;11630;42.660;23.292;2023-07-29T07:10:33;6.37;;;4.10;;
22929;SDS011;11630;42.660;23.292;2023-07-29T07:13:04;3.73;;;3.43;;
22929;SDS011;11630;42.660;23.292;2023-07-29T07:15:35;4.43;;;4.00;;
22929;SDS011;11630;42.660;23.292;2023-07-29T07:18:06;4.43;;;3.60;;
22929;SDS011;11630;42.660;23.292;2023-07-29T07:20:41;5.33;;;3.50;;
22929;SDS011;11630;42.660;23.292;2023-07-29T07:23:12;5.53;;;3.50;;
22929;SDS011;11630;42.660;23.292;2023-07-29T07:25:43;6.77;;;3.90;;
22929;SDS011;11630;42.660;23.292;2023-07-29T07:28:14;11.87;;;4.03;;
22929;SDS011;11630;42.660;23.292;2023-07-29T07:30:44;7.57;;;4.07;;
22929;SDS011;11630;42.660;23.292;2023-07-29T07:33:16;6.43;;;3.73;;
22929;SDS011;11630;42.660;23.292;2023-07-29T07:35:46;4.10;;;3.70;;
22929;SDS011;11630;42.660;23.292;2023-07-29T07:38:17;6.33;;;3.83;;
22929;SDS011;11630;42.660;23.292;2023-07-29T07:40:53;12.10;;;4.17;;
22929;SDS011;11630;42.660;23.292;2023-07-29T07:43:25;6.20;;;3.63;;
22929;SDS011;11630;42.660;23.292;2023-07-29T07:45:58;8.63;;;3.67;;
22929;SDS011;11630;42.660;23.292;2023-07-29T07:48:30;6.23;;;3.87;;
22929;SDS011;11630;42.660;23.292;2023-07-29T07:51:00;5.80;;;3.90;;
22929;SDS011;11630;42.660;23.292;2023-07-29T07:53:32;8.20;;;4.13;;
22929;SDS011;11630;42.660;23.292;2023-07-29T07:56:02;6.33;;;4.13;;
22929;SDS011;11630;42.660;23.292;2023-07-29T07:58:35;5.63;;;3.90;;
22929;SDS011;11630;42.660;23.292;2023-07-29T08:01:07;9.73;;;3.80;;
22929;SDS011;11630;42.660;23.292;2023-07-29T08:03:37;3.93;;;3.57;;
22929;SDS011;11630;42.660;23.292;2023-07-29T08:06:09;10.10;;;4.23;;
22929;SDS011;11630;42.660;23.292;2023-07-29T08:08:40;10.07;;;3.83;;
22929;SDS011;11630;42.660;23.292;2023-07-29T08:11:11;5.23;;;4.27;;
22929;SDS011;11630;42.660;23.292;2023-07-29T08:13:42;4.93;;;4.00;;
22929;SDS011;11630;42.660;23.292;2023-07-29T08:16:15;4.70;;;3.93;;
22929;SDS011;11630;42.660;23.292;2023-07-29T08:18:48;6.63;;;4.50;;
22929;SDS011;11630;42.660;23.292;2023-07-29T08:21:18;5.90;;;4.03;;
22929;SDS011;11630;42.660;23.292;2023-07-29T08:23:49;11.73;;;4.80;;
22929;SDS011;11630;42.660;23.292;2023-07-29T08:26:20;9.70;;;4.90;;
22929;SDS011;11630;42.660;23.292;2023-07-29T08:28:51;10.27;;;4.97;;
22929;SDS011;11630;42.660;23.292;2023-07-29T08:31:22;6.50;;;4.00;;
22929;SDS011;11630;42.660;23.292;2023-07-29T08:33:53;9.13;;;4.70;;
22929;SDS011;11630;42.660;23.292;2023-07-29T08:36:23;5.37;;;3.87;;
22929;SDS011;11630;42.660;23.292;2023-07-29T08:38:54;11.60;;;4.00;;
22929;SDS011;11630;42.660;23.292;2023-07-29T08:41:26;6.23;;;4.00;;
22929;SDS011;11630;42.660;23.292;2023-07-29T08:44:20;6.27;;;4.10;;
22929;SDS011;11630;42.660;23.292;2023-07-29T08:46:50;7.73;;;4.23;;
22929;SDS011;11630;42.660;23.292;2023-07-29T08:49:21;7.77;;;4.10;;
22929;SDS011;11630;42.660;23.292;2023-07-29T08:51:53;6.83;;;3.85;;
22929;SDS011;11630;42.660;23.292;2023-07-29T08:54:25;4.67;;;3.52;;
22929;SDS011;11630;42.660;23.292;2023-07-29T08:56:57;8.53;;;3.45;;
22929;SDS011;11630;42.660;23.292;2023-07-29T08:59:28;7.78;;;2.90;;
22929;SDS011;11630;42.660;23.292;2023-07-29T09:01:59;5.72;;;2.70;;
22929;SDS011;11630;42.660;23.292;2023-07-29T09:04:30;8.20;;;2.77;;
22929;SDS011;11630;42.660;23.292;2023-07-29T09:07:01;4.65;;;3.35;;
22929;SDS011;11630;42.660;23.292;2023-07-29T09:09:33;3.83;;;3.10;;
22929;SDS011;11630;42.660;23.292;2023-07-29T09:12:03;9.13;;;3.08;;
22929;SDS011;11630;42.660;23.292;2023-07-29T09:14:35;13.68;;;3.17;;
22929;SDS011;11630;42.660;23.292;2023-07-29T09:17:07;10.32;;;3.95;;
22929;SDS011;11630;42.660;23.292;2023-07-29T09:19:38;3.95;;;2.27;;
22929;SDS011;11630;42.660;23.292;2023-07-29T09:22:17;5.20;;;3.05;;
22929;SDS011;11630;42.660;23.292;2023-07-29T09:24:47;3.15;;;2.75;;
22929;SDS011;11630;42.660;23.292;2023-07-29T09:27:26;7.20;;;2.40;;
22929;SDS011;11630;42.660;23.292;2023-07-29T09:30:00;2.83;;;2.20;;
22929;SDS011;11630;42.660;23.292;2023-07-29T09:32:32;6.15;;;2.55;;
22929;SDS011;11630;42.660;23.292;2023-07-29T09:35:07;4.85;;;2.42;;
22929;SDS011;11630;42.660;23.292;2023-07-29T09:37:37;4.97;;;2.37;;
22929;SDS011;11630;42.660;23.292;2023-07-29T09:40:13;1.67;;;1.47;;
22929;SDS011;11630;42.660;23.292;2023-07-29T09:42:40;1.90;;;1.80;;
22929;SDS011;11630;42.660;23.292;2023-07-29T09:45:24;6.10;;;2.37;;
22929;SDS011;11630;42.660;23.292;2023-07-29T09:47:56;14.50;;;2.62;;
22929;SDS011;11630;42.660;23.292;2023-07-29T09:50:32;6.97;;;2.17;;
22929;SDS011;11630;42.660;23.292;2023-07-29T09:53:04;6.03;;;2.30;;
22929;SDS011;11630;42.660;23.292;2023-07-29T09:55:35;2.60;;;2.20;;
22929;SDS011;11630;42.660;23.292;2023-07-29T09:58:06;3.37;;;2.30;;
22929;SDS011;11630;42.660;23.292;2023-07-29T10:00:37;3.92;;;2.02;;
22929;SDS011;11630;42.660;23.292;2023-07-29T10:03:07;2.22;;;2.02;;
22929;SDS011;11630;42.660;23.292;2023-07-29T10:05:37;2.37;;;2.17;;
22929;SDS011;11630;42.660;23.292;2023-07-29T10:08:09;3.52;;;1.98;;
22929;SDS011;11630;42.660;23.292;2023-07-29T10:10:44;4.40;;;2.08;;
22929;SDS011;11630;42.660;23.292;2023-07-29T10:13:15;4.33;;;2.02;;
22929;SDS011;11630;42.660;23.292;2023-07-29T10:15:46;3.47;;;2.30;;
22929;SDS011;11630;42.660;23.292;2023-07-29T10:18:21;2.72;;;1.92;;
22929;SDS011;11630;42.660;23.292;2023-07-29T10:20:51;2.30;;;2.10;;
22929;SDS011;11630;42.660;23.292;2023-07-29T10:23:24;4.53;;;1.92;;
22929;SDS011;11630;42.660;23.292;2023-07-29T10:26:03;1.85;;;1.62;;
22929;SDS011;11630;42.660;23.292;2023-07-29T10:28:36;10.75;;;2.22;;
22929;SDS011;11630;42.660;23.292;2023-07-29T10:31:07;1.57;;;1.47;;
22929;SDS011;11630;42.660;23.292;2023-07-29T10:33:38;1.47;;;1.37;;
22929;SDS011;11630;42.660;23.292;2023-07-29T10:36:12;4.33;;;1.22;;
22929;SDS011;11630;42.660;23.292;2023-07-29T10:38:42;1.98;;;1.25;;
22929;SDS011;11630;42.660;23.292;2023-07-29T10:41:12;2.52;;;1.20;;
22929;SDS011;11630;42.660;23.292;2023-07-29T10:43:44;2.72;;;1.20;;
22929;SDS011;11630;42.660;23.292;2023-07-29T10:46:19;2.05;;;1.47;;
22929;SDS011;11630;42.660;23.292;2023-07-29T10:54:09;2.87;;;1.30;;
22929;SDS011;11630;42.660;23.292;2023-07-29T10:56:48;1.45;;;1.30;;
22929;SDS011;11630;42.660;23.292;2023-07-29T11:02:11;3.22;;;1.50;;
22929;SDS011;11630;42.660;23.292;2023-07-29T11:04:51;1.20;;;1.10;;
22929;SDS011;11630;42.660;23.292;2023-07-29T11:07:27;1.50;;;1.27;;
22929;SDS011;11630;42.660;23.292;2023-07-29T11:10:03;1.92;;;1.15;;
22929;SDS011;11630;42.660;23.292;2023-07-29T11:12:40;1.15;;;1.05;;
22929;SDS011;11630;42.660;23.292;2023-07-29T11:17:51;1.37;;;1.20;;
22929;SDS011;11630;42.660;23.292;2023-07-29T11:20:26;6.12;;;1.70;;
22929;SDS011;11630;42.660;23.292;2023-07-29T11:22:58;1.42;;;1.32;;
22929;SDS011;11630;42.660;23.292;2023-07-29T11:25:30;5.25;;;1.47;;
22929;SDS011;11630;42.660;23.292;2023-07-29T11:28:01;2.60;;;1.70;;
22929;SDS011;11630;42.660;23.292;2023-07-29T11:30:32;2.17;;;1.67;;
22929;SDS011;11630;42.660;23.292;2023-07-29T11:33:04;1.12;;;1.05;;
22929;SDS011;11630;42.660;23.292;2023-07-29T11:35:34;1.42;;;1.32;;
22929;SDS011;11630;42.660;23.292;2023-07-29T11:38:06;2.05;;;1.85;;
22929;SDS011;11630;42.660;23.292;2023-07-29T11:40:36;1.60;;;1.30;;
22929;SDS011;11630;42.660;23.292;2023-07-29T11:43:07;2.50;;;1.72;;
22929;SDS011;11630;42.660;23.292;2023-07-29T11:45:37;9.90;;;1.77;;
22929;SDS011;11630;42.660;23.292;2023-07-29T11:48:10;4.87;;;1.85;;
22929;SDS011;11630;42.660;23.292;2023-07-29T11:50:41;1.55;;;1.20;;
22929;SDS011;11630;42.660;23.292;2023-07-29T11:53:12;1.60;;;1.37;;
22929;SDS011;11630;42.660;23.292;2023-07-29T11:55:42;1.45;;;1.30;;
22929;SDS011;11630;42.660;23.292;2023-07-29T11:58:13;2.50;;;1.70;;
22929;SDS011;11630;42.660;23.292;2023-07-29T12:00:46;1.22;;;1.17;;
22929;SDS011;11630;42.660;23.292;2023-07-29T12:03:17;2.17;;;1.47;;
22929;SDS011;11630;42.660;23.292;2023-07-29T12:05:49;6.75;;;1.47;;
22929;SDS011;11630;42.660;23.292;2023-07-29T12:08:19;4.53;;;1.72;;
22929;SDS011;11630;42.660;23.292;2023-07-29T12:10:50;2.35;;;1.32;;
22929;SDS011;11630;42.660;23.292;2023-07-29T12:13:23;2.83;;;1.35;;
22929;SDS011;11630;42.660;23.292;2023-07-29T12:16:00;1.40;;;1.30;;
22929;SDS011;11630;42.660;23.292;2023-07-29T12:18:30;2.33;;;1.42;;
22929;SDS011;11630;42.660;23.292;2023-07-29T12:21:01;2.25;;;1.60;;
22929;SDS011;11630;42.660;23.292;2023-07-29T12:23:33;4.12;;;1.15;;
22929;SDS011;11630;42.660;23.292;2023-07-29T12:26:04;7.45;;;1.98;;
22929;SDS011;11630;42.660;23.292;2023-07-29T12:28:38;2.90;;;1.72;;
22929;SDS011;11630;42.660;23.292;2023-07-29T12:31:10;3.87;;;1.67;;
22929;SDS011;11630;42.660;23.292;2023-07-29T12:33:41;1.27;;;1.17;;
22929;SDS011;11630;42.660;23.292;2023-07-29T12:36:12;6.40;;;1.82;;
22929;SDS011;11630;42.660;23.292;2023-07-29T12:38:43;2.62;;;1.47;;
22929;SDS011;11630;42.660;23.292;2023-07-29T12:41:14;3.62;;;1.75;;
22929;SDS011;11630;42.660;23.292;2023-07-29T12:43:46;1.50;;;1.40;;
22929;SDS011;11630;42.660;23.292;2023-07-29T12:46:16;1.62;;;1.52;;
22929;SDS011;11630;42.660;23.292;2023-07-29T12:48:46;9.30;;;2.17;;
22929;SDS011;11630;42.660;23.292;2023-07-29T12:51:17;1.52;;;1.30;;
22929;SDS011;11630;42.660;23.292;2023-07-29T12:53:48;2.20;;;1.40;;
22929;SDS011;11630;42.660;23.292;2023-07-29T12:56:20;2.75;;;1.67;;
22929;SDS011;11630;42.660;23.292;2023-07-29T12:58:50;4.80;;;1.67;;
22929;SDS011;11630;42.660;23.292;2023-07-29T13:01:21;2.37;;;1.70;;
22929;SDS011;11630;42.660;23.292;2023-07-29T13:03:52;1.45;;;1.30;;
22929;SDS011;11630;42.660;23.292;2023-07-29T13:06:23;1.65;;;1.25;;
22929;SDS011;11630;42.660;23.292;2023-07-29T13:08:57;1.85;;;1.40;;
22929;SDS011;11630;42.660;23.292;2023-07-29T13:11:27;4.12;;;1.60;;
22929;SDS011;11630;42.660;23.292;2023-07-29T13:13:57;1.75;;;1.35;;
22929;SDS011;11630;42.660;23.292;2023-07-29T13:16:27;3.33;;;1.37;;
22929;SDS011;11630;42.660;23.292;2023-07-29T13:18:57;1.92;;;1.27;;
22929;SDS011;11630;42.660;23.292;2023-07-29T13:21:27;1.62;;;1.27;;
22929;SDS011;11630;42.660;23.292;2023-07-29T13:23:58;3.35;;;1.40;;
22929;SDS011;11630;42.660;23.292;2023-07-29T13:26:29;5.83;;;1.40;;
22929;SDS011;11630;42.660;23.292;2023-07-29T13:29:00;4.20;;;1.70;;
22929;SDS011;11630;42.660;23.292;2023-07-29T13:31:30;10.13;;;2.20;;
22929;SDS011;11630;42.660;23.292;2023-07-29T13:34:01;1.95;;;1.60;;
22929;SDS011;11630;42.660;23.292;2023-07-29T13:36:32;3.33;;;1.30;;
22929;SDS011;11630;42.660;23.292;2023-07-29T13:39:03;2.15;;;1.30;;
22929;SDS011;11630;42.660;23.292;2023-07-29T13:41:34;11.28;;;2.02;;
22929;SDS011;11630;42.660;23.292;2023-07-29T13:44:04;3.83;;;1.70;;
22929;SDS011;11630;42.660;23.292;2023-07-29T13:46:35;1.62;;;1.52;;
22929;SDS011;11630;42.660;23.292;2023-07-29T13:49:05;7.28;;;1.57;;
22929;SDS011;11630;42.660;23.292;2023-07-29T13:51:35;2.77;;;1.92;;
22929;SDS011;11630;42.660;23.292;2023-07-29T13:54:06;4.40;;;1.47;;
22929;SDS011;11630;42.660;23.292;2023-07-29T13:56:36;6.85;;;2.45;;
22929;SDS011;11630;42.660;23.292;2023-07-29T13:59:07;4.72;;;2.25;;
22929;SDS011;11630;42.660;23.292;2023-07-29T14:01:38;6.70;;;2.90;;
22929;SDS011;11630;42.660;23.292;2023-07-29T14:04:12;3.45;;;2.37;;
22929;SDS011;11630;42.660;23.292;2023-07-29T14:06:43;3.83;;;2.80;;
22929;SDS011;11630;42.660;23.292;2023-07-29T14:09:14;2.80;;;2.45;;
22929;SDS011;11630;42.660;23.292;2023-07-29T14:11:44;4.08;;;2.10;;
22929;SDS011;11630;42.660;23.292;2023-07-29T14:14:16;1.72;;;1.60;;
22929;SDS011;11630;42.660;23.292;2023-07-29T14:16:48;4.37;;;2.17;;
22929;SDS011;11630;42.660;23.292;2023-07-29T14:19:19;9.18;;;2.47;;
22929;SDS011;11630;42.660;23.292;2023-07-29T14:21:48;4.47;;;2.60;;
22929;SDS011;11630;42.660;23.292;2023-07-29T14:24:19;4.15;;;2.30;;
22929;SDS011;11630;42.660;23.292;2023-07-29T14:26:53;5.50;;;2.42;;
22929;SDS011;11630;42.660;23.292;2023-07-29T14:29:26;2.85;;;2.30;;
22929;SDS011;11630;42.660;23.292;2023-07-29T14:31:57;3.27;;;2.15;;
22929;SDS011;11630;42.660;23.292;2023-07-29T14:34:28;2.15;;;1.75;;
22929;SDS011;11630;42.660;23.292;2023-07-29T14:36:59;1.85;;;1.70;;
22929;SDS011;11630;42.660;23.292;2023-07-29T14:39:31;4.40;;;2.20;;
22929;SDS011;11630;42.660;23.292;2023-07-29T14:42:02;2.70;;;2.50;;
22929;SDS011;11630;42.660;23.292;2023-07-29T14:44:33;2.47;;;1.40;;
22929;SDS011;11630;42.660;23.292;2023-07-29T14:47:04;2.17;;;1.67;;
22929;SDS011;11630;42.660;23.292;2023-07-29T14:49:35;7.95;;;1.67;;
22929;SDS011;11630;42.660;23.292;2023-07-29T14:52:06;2.37;;;1.60;;
22929;SDS011;11630;42.660;23.292;2023-07-29T14:54:36;2.00;;;1.77;;
22929;SDS011;11630;42.660;23.292;2023-07-29T14:57:09;2.95;;;1.72;;
22929;SDS011;11630;42.660;23.292;2023-07-29T14:59:39;3.95;;;2.98;;
22929;SDS011;11630;42.660;23.292;2023-07-29T15:02:11;3.00;;;2.00;;
22929;SDS011;11630;42.660;23.292;2023-07-29T15:04:43;1.70;;;1.60;;
22929;SDS011;11630;42.660;23.292;2023-07-29T15:07:14;1.60;;;1.50;;
22929;SDS011;11630;42.660;23.292;2023-07-29T15:09:45;2.10;;;1.85;;
22929;SDS011;11630;42.660;23.292;2023-07-29T15:12:16;1.45;;;1.35;;
22929;SDS011;11630;42.660;23.292;2023-07-29T15:14:47;2.62;;;1.82;;